Погода Тыменецна неделю

Великопольское воеводство, Польша

16 - 22 июля
  • 16июля
    Сегодня
    +18°
    +30°
    Небольшая облачность, ливень
    ВремяПогодаТемператураВлажностьДавлениеВетер, м/сВероятность осадков
    02:00Ясно и безоблачно+21°C65 %747 мм2.5 м/с2 %
    05:00Ясно и безоблачно+20°C71 %747 мм2.4 м/с2 %
    08:00Облачно с прояснениями+24°C78 %746 мм3.1 м/с2 %
    11:00Практически безоблачно+29°C61 %745 мм3.5 м/с12 %
    14:00Небольшая облачность, ливень+30°C71 %746 мм3.9 м/с50 %
    17:00Небольшая облачность, ливень+27°C70 %746 мм4.1 м/с50 %
    20:00Ясно и безоблачно+25°C72 %747 мм2.5 м/с7 %
    23:00Ясно и безоблачно+22°C82 %748 мм2.9 м/с2 %
  • 17июля
    Среда
    +15°
    +27°
    Облачно с прояснениями
    ВремяПогодаТемператураВлажностьДавлениеВетер, м/сВероятность осадков
    02:00Практически безоблачно+20°C86 %749 мм2.2 м/с2 %
    05:00Ясно и безоблачно+19°C82 %749 мм2.2 м/с2 %
    08:00Практически безоблачно+21°C72 %751 мм2.9 м/с2 %
    11:00Ясно и безоблачно+24°C53 %752 мм3.3 м/с3 %
    14:00Облачно с прояснениями+26°C49 %752 мм3.5 м/с3 %
    17:00Ясно и безоблачно+27°C49 %752 мм4.0 м/с2 %
    20:00Небольшая облачность+24°C65 %752 мм2.0 м/с5 %
    23:00Ясно и безоблачно+20°C78 %753 мм2.6 м/с8 %
  • 18июля
    Четверг
    +15°
    +26°
    Небольшая облачность
    ВремяПогодаТемператураВлажностьДавлениеВетер, м/сВероятность осадков
    02:00Ясно и безоблачно+18°C77 %753 мм2.0 м/с2 %
    05:00Ясно и безоблачно+16°C84 %753 мм1.9 м/с2 %
    08:00Ясно и безоблачно+20°C71 %754 мм2.3 м/с2 %
    11:00Практически безоблачно+23°C54 %754 мм3.2 м/с2 %
    14:00Небольшая облачность+25°C48 %754 мм3.7 м/с4 %
    17:00Небольшая облачность+26°C45 %753 мм4.1 м/с2 %
    20:00Ясно и безоблачно+23°C63 %753 мм2.4 м/с2 %
    23:00Облачно с прояснениями+19°C76 %754 мм2.7 м/с2 %
  • 19июля
    Пятница
    +15°
    +27°
    Небольшая облачность
    ВремяПогодаТемператураВлажностьДавлениеВетер, м/сВероятность осадков
    02:00Облачно с прояснениями+17°C82 %754 мм1.7 м/с2 %
    05:00Облачно с прояснениями+16°C84 %754 мм1.5 м/с2 %
    08:00Облачно с прояснениями+20°C76 %754 мм0.9 м/с2 %
    11:00Практически безоблачно+23°C53 %754 мм2.2 м/с5 %
    14:00Небольшая облачность+26°C44 %753 мм2.8 м/с6 %
    17:00Небольшая облачность+26°C45 %752 мм3.6 м/с5 %
    20:00Ясно и безоблачно+24°C71 %752 мм1.7 м/с2 %
    23:00Ясно и безоблачно+20°C72 %752 мм2.2 м/с2 %
  • 20июля
    Суббота
    +16°
    +28°
    Ясно и безоблачно
    ВремяПогодаТемператураВлажностьДавлениеВетер, м/сВероятность осадков
    02:00Ясно и безоблачно+18°C86 %752 мм1.7 м/с2 %
    05:00Ясно и безоблачно+15°C93 %751 мм1.8 м/с2 %
    08:00Практически безоблачно+20°C75 %751 мм1.0 м/с2 %
    11:00Ясно и безоблачно+25°C54 %751 мм1.8 м/с2 %
    14:00Ясно и безоблачно+26°C44 %751 мм1.8 м/с4 %
    17:00Ясно и безоблачно+28°C41 %750 мм2.4 м/с2 %
    20:00Ясно и безоблачно+24°C58 %749 мм1.4 м/с2 %
    23:00Ясно и безоблачно+21°C63 %749 мм2.6 м/с2 %
Мы используем cookies
Соглашаюсь